Time;durP1;ratioP1;P1;durP2;ratioP2;P2;SDS_P1;SDS_P2;PMS_P1;PMS_P2;Temp;Humidity;BMP_temperature;BMP_pressure;BME280_temperature;BME280_humidity;BME280_pressure;Samples;Min_cycle;Max_cycle;Signal;HPM_P1;HPM_P2
2022/11/07 00:00:31;;;;;;;1.83;1.73;;;;;;;;;;4979047;28;20097;-21
2022/11/07 00:02:57;;;;;;;1.95;1.77;;;;;;;;;;4978717;28;20039;-21
2022/11/07 00:05:24;;;;;;;1.98;1.85;;;;;;;;;;4961905;28;20382;-22
2022/11/07 00:07:50;;;;;;;4.70;1.80;;;;;;;;;;4979147;28;20094;-22
2022/11/07 00:10:16;;;;;;;2.08;1.92;;;;;;;;;;4978863;28;20037;-22
2022/11/07 00:12:42;;;;;;;1.70;1.60;;;;;;;;;;4978910;28;20034;-22
2022/11/07 00:15:08;;;;;;;1.60;1.42;;;;;;;;;;4978799;28;20023;-21
2022/11/07 00:17:34;;;;;;;1.90;1.60;;;;;;;;;;4979276;28;20034;-22
2022/11/07 00:20:00;;;;;;;1.95;1.75;;;;;;;;;;4978604;28;20082;-22
2022/11/07 00:22:27;;;;;;;2.13;1.95;;;;;;;;;;4978765;28;20362;-21
2022/11/07 00:24:53;;;;;;;2.20;2.00;;;;;;;;;;4961716;28;20034;-21
2022/11/07 00:27:19;;;;;;;1.85;1.75;;;;;;;;;;4978829;28;20062;-21
2022/11/07 00:29:45;;;;;;;2.00;1.77;;;;;;;;;;4961786;28;20454;-21
2022/11/07 00:32:11;;;;;;;1.98;1.88;;;;;;;;;;4978379;28;20031;-22
2022/11/07 00:34:38;;;;;;;2.13;1.73;;;;;;;;;;4978610;28;20023;-21
2022/11/07 00:37:04;;;;;;;2.70;2.50;;;;;;;;;;4978595;28;20034;-21
2022/11/07 00:39:30;;;;;;;2.10;1.90;;;;;;;;;;4978583;28;20113;-22
2022/11/07 00:41:56;;;;;;;2.03;1.80;;;;;;;;;;4978449;28;20031;-22
2022/11/07 00:44:22;;;;;;;1.95;1.85;;;;;;;;;;4978467;28;20034;-21
2022/11/07 00:46:48;;;;;;;1.77;1.67;;;;;;;;;;4978224;28;20027;-22
2022/11/07 00:49:14;;;;;;;1.70;1.60;;;;;;;;;;4978164;28;20038;-21
2022/11/07 00:51:41;;;;;;;2.20;2.00;;;;;;;;;;4978112;28;20081;-21
2022/11/07 00:54:07;;;;;;;2.17;1.98;;;;;;;;;;4978172;28;20035;-21
2022/11/07 00:56:34;;;;;;;2.08;1.83;;;;;;;;;;4978556;28;20051;-22
2022/11/07 00:59:00;;;;;;;2.25;2.05;;;;;;;;;;4977931;28;20023;-22
2022/11/07 01:01:28;;;;;;;2.00;1.45;;;;;;;;;;4978073;28;20390;-21
2022/11/07 01:06:50;;;;;;;1.80;1.70;;;;;;;;;;4909276;28;20043;-21
2022/11/07 01:09:20;;;;;;;2.50;2.00;;;;;;;;;;4977829;28;20035;-22
2022/11/07 01:11:46;;;;;;;2.30;2.10;;;;;;;;;;4978060;28;20026;-21
2022/11/07 01:14:13;;;;;;;2.05;1.90;;;;;;;;;;4977622;28;20039;-23
2022/11/07 01:16:40;;;;;;;1.83;1.73;;;;;;;;;;4977949;28;20027;-21
2022/11/07 01:19:07;;;;;;;3.17;1.90;;;;;;;;;;4977559;28;20042;-22
2022/11/07 01:21:33;;;;;;;3.72;2.00;;;;;;;;;;4977579;28;20026;-22
2022/11/07 01:24:00;;;;;;;1.98;1.80;;;;;;;;;;4977523;28;20109;-22
2022/11/07 01:26:26;;;;;;;2.33;2.13;;;;;;;;;;4977743;28;20038;-22
2022/11/07 01:28:52;;;;;;;3.03;1.73;;;;;;;;;;4977702;28;20438;-22
2022/11/07 01:31:18;;;;;;;1.63;1.52;;;;;;;;;;4977341;28;20605;-22
2022/11/07 01:33:45;;;;;;;2.13;1.92;;;;;;;;;;4960171;28;20031;-21
2022/11/07 01:36:13;;;;;;;2.00;1.90;;;;;;;;;;4977559;28;20419;-22
2022/11/07 01:38:40;;;;;;;1.85;1.75;;;;;;;;;;4977770;28;20035;-21
2022/11/07 01:41:20;;;;;;;1.90;1.80;;;;;;;;;;4977487;28;20034;-22
2022/11/07 01:43:54;;;;;;;2.10;1.92;;;;;;;;;;4977686;28;20026;-22
2022/11/07 01:46:21;;;;;;;2.55;2.13;;;;;;;;;;4977093;28;20046;-24
2022/11/07 01:49:10;;;;;;;1.80;1.70;;;;;;;;;;4977048;28;20081;-22
2022/11/07 01:51:51;;;;;;;2.35;2.13;;;;;;;;;;4969326;28;20125;-23
2022/11/07 01:54:17;;;;;;;;;;;;;;;;;;4977575;28;20034;-22
2022/11/07 01:56:45;;;;;;;1.67;1.52;;;;;;;;;;4977168;28;19910;-21
2022/11/07 01:59:13;;;;;;;2.10;1.90;;;;;;;;;;4976861;28;20038;-20
2022/11/07 02:01:39;;;;;;;2.05;1.85;;;;;;;;;;4976808;28;20026;-21
2022/11/07 02:04:05;;;;;;;1.65;1.55;;;;;;;;;;4976589;28;20054;-20
2022/11/07 02:06:39;;;;;;;2.15;2.05;;;;;;;;;;4976712;28;20046;-21
2022/11/07 02:09:05;;;;;;;1.75;1.63;;;;;;;;;;4976982;28;20375;-20
2022/11/07 02:11:31;;;;;;;1.83;1.73;;;;;;;;;;4976451;28;20050;-21
2022/11/07 02:13:58;;;;;;;1.77;1.67;;;;;;;;;;4976478;28;20039;-21
2022/11/07 02:16:24;;;;;;;1.83;1.60;;;;;;;;;;4959553;28;20031;-22
2022/11/07 02:18:50;;;;;;;2.08;1.90;;;;;;;;;;4976464;28;20467;-21
2022/11/07 02:21:23;;;;;;;2.35;2.00;;;;;;;;;;4976506;28;20042;-21
2022/11/07 02:23:58;;;;;;;1.70;1.60;;;;;;;;;;4976637;28;20100;-21
2022/11/07 02:26:25;;;;;;;2.10;2.00;;;;;;;;;;4976677;28;20046;-21
2022/11/07 02:28:52;;;;;;;2.05;1.95;;;;;;;;;;4976606;28;20030;-21
2022/11/07 02:31:18;;;;;;;2.25;2.05;;;;;;;;;;4976359;28;20046;-22
2022/11/07 02:33:44;;;;;;;2.17;1.98;;;;;;;;;;4976239;28;20034;-21
2022/11/07 02:36:14;;;;;;;1.67;1.58;;;;;;;;;;4976262;28;20067;-22
2022/11/07 02:38:41;;;;;;;2.13;2.03;;;;;;;;;;4976216;28;20410;-22
2022/11/07 02:41:12;;;;;;;2.13;1.75;;;;;;;;;;4976178;28;20034;-21
2022/11/07 02:43:40;;;;;;;1.77;1.67;;;;;;;;;;4976095;28;20146;-21
2022/11/07 02:46:08;;;;;;;2.17;1.98;;;;;;;;;;4976382;28;20097;-21
2022/11/07 02:48:42;;;;;;;2.17;1.98;;;;;;;;;;4976012;28;20022;-21
2022/11/07 02:51:08;;;;;;;1.83;1.73;;;;;;;;;;4976629;28;20030;-21
2022/11/07 02:53:34;;;;;;;2.65;2.13;;;;;;;;;;4976085;28;20035;-24
2022/11/07 02:56:01;;;;;;;2.20;2.00;;;;;;;;;;4975910;28;20101;-21
2022/11/07 02:58:27;;;;;;;1.70;1.60;;;;;;;;;;4958893;28;20114;-21
2022/11/07 03:00:53;;;;;;;1.70;1.60;;;;;;;;;;4976207;28;20058;-21
2022/11/07 03:03:19;;;;;;;1.85;1.75;;;;;;;;;;4975706;28;20047;-21
2022/11/07 03:05:45;;;;;;;2.20;2.00;;;;;;;;;;4958870;28;20030;-21
2022/11/07 03:08:11;;;;;;;2.35;1.55;;;;;;;;;;4976442;28;20422;-21
2022/11/07 03:10:37;;;;;;;2.72;1.70;;;;;;;;;;4975837;28;20034;-21
2022/11/07 03:13:04;;;;;;;1.70;1.60;;;;;;;;;;4975915;28;20339;-22
2022/11/07 03:15:30;;;;;;;2.83;2.63;;;;;;;;;;4959295;28;20039;-21
2022/11/07 03:17:58;;;;;;;1.73;1.63;;;;;;;;;;4975784;28;20458;-22
2022/11/07 03:20:24;;;;;;;1.83;1.73;;;;;;;;;;4976064;28;20324;-23
2022/11/07 03:22:50;;;;;;;2.00;1.90;;;;;;;;;;4975912;28;20201;-23
2022/11/07 03:25:16;;;;;;;1.50;1.40;;;;;;;;;;4978566;28;20029;-22
2022/11/07 03:27:49;;;;;;;1.73;1.63;;;;;;;;;;4980209;28;20027;-21
2022/11/07 03:30:15;;;;;;;2.05;1.85;;;;;;;;;;4979852;28;20023;-22
2022/11/07 03:32:41;;;;;;;3.03;2.05;;;;;;;;;;4979864;28;20099;-21
2022/11/07 03:35:08;;;;;;;2.65;1.88;;;;;;;;;;4979737;28;20379;-22
2022/11/07 03:37:34;;;;;;;2.85;1.80;;;;;;;;;;4962387;28;20027;-21
2022/11/07 03:40:00;;;;;;;2.53;1.90;;;;;;;;;;4979472;28;20027;-21
2022/11/07 03:42:26;;;;;;;1.70;1.60;;;;;;;;;;4979339;28;20097;-21
2022/11/07 03:44:52;;;;;;;1.80;1.70;;;;;;;;;;4979589;28;20097;-22
2022/11/07 03:47:18;;;;;;;2.20;2.00;;;;;;;;;;4979576;28;20023;-21
2022/11/07 03:49:45;;;;;;;2.45;2.05;;;;;;;;;;4979256;28;20027;-22
2022/11/07 03:52:11;;;;;;;1.85;1.75;;;;;;;;;;4979379;28;20409;-25
2022/11/07 03:54:37;;;;;;;2.00;1.63;;;;;;;;;;4979121;28;20038;-21
2022/11/07 03:57:03;;;;;;;2.42;1.77;;;;;;;;;;4979139;28;20027;-21
2022/11/07 03:59:29;;;;;;;2.10;1.65;;;;;;;;;;4979139;28;20098;-22
2022/11/07 04:01:55;;;;;;;1.65;1.55;;;;;;;;;;4961952;28;20036;-21
2022/11/07 04:04:21;;;;;;;2.15;1.50;;;;;;;;;;4978821;28;20586;-22
2022/11/07 04:06:47;;;;;;;2.15;1.95;;;;;;;;;;4978909;28;20542;-21
2022/11/07 04:09:14;;;;;;;1.90;1.80;;;;;;;;;;4978919;28;20070;-21
2022/11/07 04:17:18;;;;;;;2.10;1.85;;;;;;;;;;4979126;28;20042;-21
2022/11/07 04:19:48;;;;;;;1.90;1.63;;;;;;;;;;4978998;28;20415;-22
2022/11/07 04:22:14;;;;;;;1.80;1.50;;;;;;;;;;4978615;28;20063;-21
2022/11/07 04:24:43;;;;;;;1.55;1.45;;;;;;;;;;4978889;28;20053;-22
2022/11/07 04:29:57;;;;;;;1.85;1.73;;;;;;;;;;4978862;28;20038;-24
2022/11/07 04:32:24;;;;;;;1.88;1.65;;;;;;;;;;4978442;28;20034;-21
2022/11/07 04:34:53;;;;;;;2.38;1.88;;;;;;;;;;4977919;28;20035;-21
2022/11/07 04:37:19;;;;;;;2.17;1.98;;;;;;;;;;4978379;28;20117;-21
2022/11/07 04:39:45;;;;;;;1.67;1.58;;;;;;;;;;4961349;28;20023;-21
2022/11/07 04:42:11;;;;;;;1.85;1.75;;;;;;;;;;4978470;28;20346;-21
2022/11/07 04:44:37;;;;;;;2.35;1.98;;;;;;;;;;4978186;28;20118;-21
2022/11/07 04:47:04;;;;;;;1.40;1.30;;;;;;;;;;4978169;28;20030;-21
2022/11/07 04:49:30;;;;;;;1.90;1.55;;;;;;;;;;4961675;28;20058;-21
2022/11/07 04:51:56;;;;;;;1.98;1.80;;;;;;;;;;4978583;28;20102;-21
2022/11/07 04:54:22;;;;;;;2.17;1.98;;;;;;;;;;4977955;28;20034;-21
2022/11/07 04:56:48;;;;;;;3.00;1.73;;;;;;;;;;4978521;28;20077;-21
2022/11/07 04:59:15;;;;;;;2.45;2.03;;;;;;;;;;4977884;28;20027;-21
2022/11/07 05:01:41;;;;;;;3.20;1.92;;;;;;;;;;4978046;28;20418;-22
2022/11/07 05:04:07;;;;;;;2.70;2.10;;;;;;;;;;4977636;28;20355;-22
2022/11/07 05:06:35;;;;;;;2.30;1.83;;;;;;;;;;4977900;28;20426;-23
2022/11/07 05:09:01;;;;;;;2.00;1.70;;;;;;;;;;4978091;28;20537;-22
2022/11/07 05:11:28;;;;;;;1.95;1.85;;;;;;;;;;4978073;28;20042;-23
2022/11/07 05:13:54;;;;;;;1.80;1.60;;;;;;;;;;4977894;28;20035;-22
2022/11/07 05:16:20;;;;;;;1.75;1.65;;;;;;;;;;4977678;28;20110;-22
2022/11/07 05:18:46;;;;;;;2.03;1.83;;;;;;;;;;4977636;28;20034;-22
2022/11/07 05:21:12;;;;;;;2.85;1.90;;;;;;;;;;4977770;28;20038;-23
2022/11/07 05:23:39;;;;;;;2.20;2.10;;;;;;;;;;4977668;28;20362;-23
2022/11/07 05:26:05;;;;;;;1.85;1.75;;;;;;;;;;4977475;28;20027;-22
2022/11/07 05:28:31;;;;;;;2.40;2.20;;;;;;;;;;4977417;28;20030;-22
2022/11/07 05:30:59;;;;;;;2.38;2.17;;;;;;;;;;4960347;28;20096;-22
2022/11/07 05:33:25;;;;;;;2.00;1.80;;;;;;;;;;4977137;28;20157;-22
2022/11/07 05:35:51;;;;;;;1.60;1.50;;;;;;;;;;4977300;28;20101;-22
2022/11/07 05:38:17;;;;;;;1.80;1.70;;;;;;;;;;4960922;28;20439;-22
2022/11/07 05:40:44;;;;;;;1.90;1.80;;;;;;;;;;4977200;28;20355;-22
2022/11/07 05:43:11;;;;;;;2.47;1.83;;;;;;;;;;4977295;28;20035;-22
2022/11/07 05:45:37;;;;;;;2.53;1.80;;;;;;;;;;4977024;28;20062;-22
2022/11/07 05:48:05;;;;;;;1.95;1.85;;;;;;;;;;4976504;28;20081;-21
2022/11/07 05:50:32;;;;;;;2.30;1.90;;;;;;;;;;4977293;28;20027;-22
2022/11/07 05:52:58;;;;;;;2.25;2.05;;;;;;;;;;4976810;28;20037;-22
2022/11/07 05:55:25;;;;;;;2.42;2.17;;;;;;;;;;4977395;28;20026;-21
2022/11/07 05:57:51;;;;;;;2.10;2.00;;;;;;;;;;4976778;28;20031;-21
2022/11/07 06:03:18;;;;;;;1.95;1.85;;;;;;;;;;5340609;23;20078;-26
2022/11/07 06:05:45;;;;;;;2.15;1.95;;;;;;;;;;4996371;28;20031;-26
2022/11/07 06:08:12;;;;;;;2.28;2.08;;;;;;;;;;4996862;28;20036;-26
2022/11/07 06:10:39;;;;;;;1.92;1.83;;;;;;;;;;4996266;28;20030;-27
2022/11/07 06:13:08;;;;;;;2.20;2.00;;;;;;;;;;4995809;28;20027;-27
2022/11/07 06:15:36;;;;;;;3.17;2.00;;;;;;;;;;4996202;28;20035;-27
2022/11/07 06:18:03;;;;;;;2.50;2.20;;;;;;;;;;4996202;28;20026;-27
2022/11/07 06:20:29;;;;;;;1.90;1.70;;;;;;;;;;4995934;28;20038;-28
2022/11/07 06:22:59;;;;;;;2.38;2.00;;;;;;;;;;4995816;28;20026;-27
2022/11/07 06:25:26;;;;;;;2.60;2.00;;;;;;;;;;4995815;28;20110;-27
2022/11/07 06:27:52;;;;;;;2.30;2.10;;;;;;;;;;4995722;28;20524;-27
2022/11/07 06:30:18;;;;;;;2.90;2.28;;;;;;;;;;4995778;28;20034;-26
2022/11/07 06:32:44;;;;;;;2.45;1.80;;;;;;;;;;4995901;28;20050;-27
2022/11/07 06:35:11;;;;;;;4.32;1.80;;;;;;;;;;4995650;28;20026;-27
2022/11/07 06:37:38;;;;;;;2.70;1.85;;;;;;;;;;4995645;28;20335;-27
2022/11/07 06:40:04;;;;;;;3.03;2.45;;;;;;;;;;4996383;28;20040;-27
2022/11/07 06:42:31;;;;;;;2.28;1.92;;;;;;;;;;4995430;28;20038;-27
2022/11/07 06:44:57;;;;;;;2.83;1.88;;;;;;;;;;4995410;28;20109;-27
2022/11/07 06:47:23;;;;;;;1.88;1.48;;;;;;;;;;4995486;28;20030;-27
2022/11/07 06:49:49;;;;;;;2.40;2.17;;;;;;;;;;4995415;28;20026;-27
2022/11/07 06:52:16;;;;;;;2.40;1.98;;;;;;;;;;4995343;28;20030;-27
2022/11/07 06:54:42;;;;;;;3.67;2.08;;;;;;;;;;4995272;28;20034;-28
2022/11/07 06:57:08;;;;;;;3.25;2.28;;;;;;;;;;4978180;28;20484;-28
2022/11/07 06:59:35;;;;;;;2.42;1.88;;;;;;;;;;4994993;28;20101;-28
2022/11/07 07:02:01;;;;;;;6.57;2.30;;;;;;;;;;4995467;28;20402;-27
2022/11/07 07:04:27;;;;;;;3.45;1.80;;;;;;;;;;4995124;28;20046;-28
2022/11/07 07:06:54;;;;;;;7.20;2.40;;;;;;;;;;4978169;28;20034;-28
2022/11/07 07:09:20;;;;;;;4.00;1.80;;;;;;;;;;4995304;28;20131;-26
2022/11/07 07:11:47;;;;;;;4.25;1.60;;;;;;;;;;4977857;28;20034;-28
2022/11/07 07:14:13;;;;;;;3.55;2.08;;;;;;;;;;4995169;28;20446;-27
2022/11/07 07:16:39;;;;;;;5.90;1.80;;;;;;;;;;4995335;28;20358;-27
2022/11/07 07:19:05;;;;;;;7.85;2.28;;;;;;;;;;4995316;28;20023;-27
2022/11/07 07:21:32;;;;;;;5.70;2.38;;;;;;;;;;4995304;28;20026;-27
2022/11/07 07:23:59;;;;;;;3.85;2.50;;;;;;;;;;4994989;28;20045;-27
2022/11/07 07:26:25;;;;;;;3.85;2.40;;;;;;;;;;4995275;28;20034;-27
2022/11/07 07:28:51;;;;;;;5.03;2.40;;;;;;;;;;4996053;28;20058;-27
2022/11/07 07:31:21;;;;;;;4.78;2.53;;;;;;;;;;4995582;28;20027;-27
2022/11/07 07:33:48;;;;;;;8.70;2.00;;;;;;;;;;4995649;28;20023;-27
2022/11/07 07:36:14;;;;;;;8.65;2.40;;;;;;;;;;4994817;28;20280;-27
2022/11/07 07:38:40;;;;;;;3.17;2.20;;;;;;;;;;4995177;28;20033;-27
2022/11/07 07:41:06;;;;;;;5.00;2.75;;;;;;;;;;4994706;28;20629;-27
2022/11/07 07:43:33;;;;;;;2.80;2.58;;;;;;;;;;4994654;28;20034;-27
2022/11/07 07:46:00;;;;;;;5.47;2.00;;;;;;;;;;4994760;28;20038;-27
2022/11/07 07:48:26;;;;;;;4.35;2.22;;;;;;;;;;4994961;28;20030;-27
2022/11/07 07:50:52;;;;;;;3.15;2.30;;;;;;;;;;4994766;28;20038;-27
2022/11/07 07:53:19;;;;;;;4.50;1.90;;;;;;;;;;4994642;28;20034;-27
2022/11/07 07:55:45;;;;;;;2.72;2.08;;;;;;;;;;4994794;28;20022;-27
2022/11/07 07:58:12;;;;;;;3.45;2.30;;;;;;;;;;4994784;28;20112;-27
2022/11/07 08:00:38;;;;;;;5.53;2.30;;;;;;;;;;4994696;28;20096;-27
2022/11/07 08:03:08;;;;;;;3.92;2.00;;;;;;;;;;4994303;28;20047;-27
2022/11/07 08:05:35;;;;;;;2.53;1.95;;;;;;;;;;4994635;28;20093;-27
2022/11/07 08:08:01;;;;;;;5.53;2.08;;;;;;;;;;4994634;28;20038;-27
2022/11/07 08:10:27;;;;;;;3.15;1.90;;;;;;;;;;4996031;28;20022;-27
2022/11/07 08:12:54;;;;;;;4.13;1.80;;;;;;;;;;4998208;28;20101;-27
2022/11/07 08:15:21;;;;;;;8.50;2.50;;;;;;;;;;4998115;28;20445;-27
2022/11/07 08:17:47;;;;;;;2.35;2.00;;;;;;;;;;4998179;28;20034;-27
2022/11/07 08:20:14;;;;;;;3.75;2.53;;;;;;;;;;4998329;28;20026;-26
2022/11/07 08:22:40;;;;;;;3.65;2.15;;;;;;;;;;4998316;28;20031;-27
2022/11/07 08:25:08;;;;;;;3.33;2.05;;;;;;;;;;4998444;28;20170;-27
2022/11/07 08:27:34;;;;;;;7.10;2.78;;;;;;;;;;4997836;28;20031;-27
2022/11/07 08:30:00;;;;;;;4.57;1.88;;;;;;;;;;4980890;28;20114;-26
2022/11/07 08:32:27;;;;;;;13.00;2.55;;;;;;;;;;4998079;28;20128;-26
2022/11/07 08:34:53;;;;;;;7.32;2.35;;;;;;;;;;4998073;28;20450;-27
2022/11/07 08:37:19;;;;;;;13.35;3.63;;;;;;;;;;4980668;28;20034;-27
2022/11/07 08:39:46;;;;;;;9.80;2.53;;;;;;;;;;4997833;28;20030;-26
2022/11/07 08:42:12;;;;;;;5.95;2.25;;;;;;;;;;4997540;28;20061;-27
2022/11/07 08:44:38;;;;;;;6.95;2.25;;;;;;;;;;4997792;28;20339;-26
2022/11/07 08:47:07;;;;;;;7.53;2.13;;;;;;;;;;4997804;28;20038;-26
2022/11/07 08:49:33;;;;;;;11.18;2.42;;;;;;;;;;4997425;28;20030;-26
2022/11/07 08:52:00;;;;;;;5.47;2.42;;;;;;;;;;4997612;28;20026;-27
2022/11/07 08:54:27;;;;;;;8.57;2.97;;;;;;;;;;4997692;28;20022;-27
2022/11/07 08:56:54;;;;;;;5.10;2.53;;;;;;;;;;4997315;28;20453;-26
2022/11/07 08:59:21;;;;;;;10.57;3.22;;;;;;;;;;4997320;28;20093;-26
2022/11/07 09:01:48;;;;;;;11.32;2.88;;;;;;;;;;4997366;28;20027;-26
2022/11/07 09:04:14;;;;;;;17.75;3.30;;;;;;;;;;4996943;28;20077;-27
2022/11/07 09:06:41;;;;;;;7.47;2.47;;;;;;;;;;4997115;28;20038;-27
2022/11/07 09:09:07;;;;;;;5.50;2.72;;;;;;;;;;4997292;28;20031;-26
2022/11/07 09:11:33;;;;;;;13.70;3.58;;;;;;;;;;4997068;28;20446;-27
2022/11/07 09:13:59;;;;;;;6.90;3.03;;;;;;;;;;4979774;28;20034;-27
2022/11/07 09:16:26;;;;;;;4.65;2.53;;;;;;;;;;4997497;28;20025;-27
2022/11/07 09:18:52;;;;;;;8.57;2.58;;;;;;;;;;4997191;28;20041;-27
2022/11/07 09:21:18;;;;;;;3.67;2.47;;;;;;;;;;4995944;28;20034;-27
2022/11/07 09:23:45;;;;;;;7.93;2.55;;;;;;;;;;4996779;28;20030;-27
2022/11/07 09:26:11;;;;;;;6.40;2.75;;;;;;;;;;4997572;28;20042;-27
2022/11/07 09:28:37;;;;;;;10.30;2.58;;;;;;;;;;4997490;28;20030;-27
2022/11/07 09:31:04;;;;;;;8.88;2.72;;;;;;;;;;4997327;28;20426;-27
2022/11/07 09:33:31;;;;;;;9.98;2.92;;;;;;;;;;4996549;28;20027;-27
2022/11/07 09:36:00;;;;;;;8.63;3.00;;;;;;;;;;4996646;28;20057;-27
2022/11/07 09:38:27;;;;;;;16.52;3.05;;;;;;;;;;4997143;28;20097;-26
2022/11/07 09:41:04;;;;;;;9.63;3.13;;;;;;;;;;4997147;28;20057;-26
2022/11/07 09:43:30;;;;;;;8.05;2.85;;;;;;;;;;4996401;28;20030;-27
2022/11/07 09:46:03;;;;;;;6.45;2.08;;;;;;;;;;4996738;28;20464;-27
2022/11/07 09:48:33;;;;;;;5.05;2.85;;;;;;;;;;4979248;28;20030;-26
2022/11/07 09:51:00;;;;;;;14.13;3.38;;;;;;;;;;4996550;28;20030;-26
2022/11/07 09:53:38;;;;;;;21.02;3.33;;;;;;;;;;4996177;28;20064;-27
2022/11/07 09:56:04;;;;;;;11.40;3.05;;;;;;;;;;4996180;28;20034;-27
2022/11/07 09:58:33;;;;;;;17.67;4.70;;;;;;;;;;4996247;28;20361;-26
2022/11/07 10:01:01;;;;;;;9.07;2.67;;;;;;;;;;4996689;28;20030;-27
2022/11/07 10:03:28;;;;;;;23.08;3.58;;;;;;;;;;4995875;28;20046;-28
2022/11/07 10:06:01;;;;;;;19.77;5.20;;;;;;;;;;4996097;28;20117;-27
2022/11/07 10:08:38;;;;;;;25.88;5.00;;;;;;;;;;4978999;28;20092;-28
2022/11/07 10:11:37;;;;;;;23.55;5.53;;;;;;;;;;4996039;28;20038;-27
2022/11/07 10:14:14;;;;;;;19.00;4.32;;;;;;;;;;4953442;28;20081;-26
2022/11/07 10:16:46;;;;;;;21.52;4.28;;;;;;;;;;4995846;28;20030;-26
2022/11/07 10:19:28;;;;;;;23.45;5.55;;;;;;;;;;4996216;28;20022;-26
2022/11/07 10:21:54;;;;;;;20.02;6.38;;;;;;;;;;4995665;28;20042;-27
2022/11/07 10:24:26;;;;;;;26.38;10.48;;;;;;;;;;4995890;28;20026;-26
2022/11/07 10:26:52;;;;;;;393.83;107.20;;;;;;;;;;4996104;28;20353;-27
2022/11/07 10:29:27;;;;;;;199.65;57.80;;;;;;;;;;4995498;28;20058;-27
2022/11/07 10:32:05;;;;;;;23.30;7.78;;;;;;;;;;4995748;28;20085;-27
2022/11/07 10:34:36;;;;;;;16.25;4.40;;;;;;;;;;4995335;28;20525;-27
2022/11/07 10:37:03;;;;;;;41.05;11.95;;;;;;;;;;4995525;28;20065;-26
2022/11/07 10:39:30;;;;;;;5.82;3.00;;;;;;;;;;4995663;28;20410;-26
2022/11/07 10:41:56;;;;;;;8.15;2.33;;;;;;;;;;4995377;28;20097;-27
2022/11/07 10:44:26;;;;;;;10.02;3.10;;;;;;;;;;4995290;28;20033;-26
2022/11/07 10:46:52;;;;;;;7.27;4.07;;;;;;;;;;4995313;28;20109;-27
2022/11/07 10:49:20;;;;;;;6.15;3.25;;;;;;;;;;4995316;28;20413;-27
2022/11/07 10:51:47;;;;;;;30.27;9.43;;;;;;;;;;4995213;28;20104;-27
2022/11/07 10:54:19;;;;;;;8.15;3.75;;;;;;;;;;4995579;28;20061;-27
2022/11/07 10:56:51;;;;;;;20.00;6.32;;;;;;;;;;4995420;28;20022;-27
2022/11/07 10:59:17;;;;;;;;;;;;;;;;;;4995685;28;20053;-27
2022/11/07 11:01:49;;;;;;;633.03;178.07;;;;;;;;;;4995343;28;19909;-27
2022/11/07 11:04:22;;;;;;;633.95;202.02;;;;;;;;;;4995092;28;20385;-27
2022/11/07 11:06:57;;;;;;;301.88;87.40;;;;;;;;;;4995134;28;20118;-27
2022/11/07 11:09:29;;;;;;;103.65;28.05;;;;;;;;;;4995392;28;20069;-27
2022/11/07 11:11:55;;;;;;;;;;;;;;;;;;4995740;28;20131;-27
2022/11/07 11:14:21;;;;;;;42.67;14.55;;;;;;;;;;4995238;28;19913;-27
2022/11/07 11:16:50;;;;;;;76.25;22.83;;;;;;;;;;4995186;28;20022;-27
2022/11/07 11:19:22;;;;;;;66.55;17.63;;;;;;;;;;4994901;28;20026;-27
2022/11/07 11:21:49;;;;;;;128.48;33.20;;;;;;;;;;4995145;28;20362;-27
2022/11/07 11:24:36;;;;;;;92.65;23.35;;;;;;;;;;4995201;28;20044;-26
2022/11/07 11:27:22;;;;;;;135.55;32.85;;;;;;;;;;4994883;28;20176;-26
2022/11/07 11:29:55;;;;;;;161.63;43.67;;;;;;;;;;4995191;28;20031;-27
2022/11/07 11:32:32;;;;;;;139.93;35.40;;;;;;;;;;4977769;28;20053;-27
2022/11/07 11:34:58;;;;;;;117.63;27.48;;;;;;;;;;4995043;28;20374;-26
2022/11/07 11:37:29;;;;;;;118.07;29.40;;;;;;;;;;4995158;28;20034;-27
2022/11/07 11:40:07;;;;;;;126.28;29.90;;;;;;;;;;4978513;28;20045;-27
2022/11/07 11:42:49;;;;;;;94.45;27.38;;;;;;;;;;4994987;28;20029;-27
2022/11/07 11:45:15;;;;;;;21.65;5.13;;;;;;;;;;4996650;28;20026;-27
2022/11/07 11:47:44;;;;;;;21.38;6.65;;;;;;;;;;4981395;28;20476;-27
2022/11/07 11:50:10;;;;;;;20.50;6.78;;;;;;;;;;4998540;28;20112;-27
2022/11/07 11:52:36;;;;;;;16.35;5.50;;;;;;;;;;4998802;28;20037;-27
2022/11/07 11:55:02;;;;;;;23.73;5.72;;;;;;;;;;4998738;28;20034;-27
2022/11/07 11:57:47;;;;;;;24.55;8.05;;;;;;;;;;4998743;28;20018;-27
2022/11/07 12:00:18;;;;;;;30.83;7.40;;;;;;;;;;4998416;28;20034;-27
2022/11/07 12:02:50;;;;;;;34.70;11.15;;;;;;;;;;4998426;28;20241;-27
2022/11/07 12:05:19;;;;;;;41.47;12.05;;;;;;;;;;4998229;28;20026;-27
2022/11/07 12:08:04;;;;;;;53.95;13.02;;;;;;;;;;4998222;28;20031;-27
2022/11/07 12:10:43;;;;;;;37.35;11.95;;;;;;;;;;4998183;28;20037;-27
2022/11/07 12:13:17;;;;;;;62.55;15.57;;;;;;;;;;4998164;28;20095;-27
2022/11/07 12:16:02;;;;;;;52.40;13.35;;;;;;;;;;4998144;28;20366;-27
2022/11/07 12:18:34;;;;;;;74.75;15.27;;;;;;;;;;4998285;28;20023;-27
2022/11/07 12:21:00;;;;;;;49.38;14.73;;;;;;;;;;4998039;28;20026;-27
2022/11/07 12:23:39;;;;;;;61.35;16.40;;;;;;;;;;4980671;28;20125;-27
2022/11/07 12:26:11;;;;;;;64.32;16.25;;;;;;;;;;4998182;28;20030;-27
2022/11/07 12:28:51;;;;;;;42.88;11.43;;;;;;;;;;4998088;28;20033;-27
2022/11/07 12:31:18;;;;;;;57.80;13.43;;;;;;;;;;4998208;28;20100;-27
2022/11/07 12:34:03;;;;;;;60.92;16.65;;;;;;;;;;4997705;28;20045;-27
2022/11/07 12:36:38;;;;;;;55.67;16.92;;;;;;;;;;4998049;28;20018;-27
2022/11/07 12:39:04;;;;;;;102.93;25.50;;;;;;;;;;4997703;28;20089;-27
2022/11/07 12:41:35;;;;;;;102.93;20.00;;;;;;;;;;4997953;28;20036;-27
2022/11/07 12:44:20;;;;;;;96.00;21.80;;;;;;;;;;4980435;28;20034;-27
2022/11/07 12:46:57;;;;;;;143.43;42.60;;;;;;;;;;4998095;28;20042;-27
2022/11/07 12:49:37;;;;;;;131.95;34.70;;;;;;;;;;4997585;28;20034;-27
2022/11/07 12:52:22;;;;;;;111.07;30.90;;;;;;;;;;4997932;28;20100;-27
2022/11/07 12:54:48;;;;;;;157.93;42.55;;;;;;;;;;4997361;28;20053;-26
2022/11/07 12:57:20;;;;;;;132.27;35.80;;;;;;;;;;4997055;28;20354;-26
2022/11/07 12:59:49;;;;;;;140.43;38.08;;;;;;;;;;4997615;28;20027;-27
2022/11/07 13:02:34;;;;;;;142.80;36.60;;;;;;;;;;4997256;28;20061;-27
2022/11/07 13:05:08;;;;;;;170.10;45.50;;;;;;;;;;4997235;28;20440;-27
2022/11/07 13:07:38;;;;;;;130.02;37.03;;;;;;;;;;4997091;28;20042;-27
2022/11/07 13:10:10;;;;;;;104.60;31.15;;;;;;;;;;4979907;28;20488;-27
2022/11/07 13:12:39;;;;;;;141.80;40.03;;;;;;;;;;4996986;28;20041;-27
2022/11/07 13:15:08;;;;;;;202.57;49.10;;;;;;;;;;4996860;28;20102;-27
2022/11/07 13:17:42;;;;;;;201.20;48.25;;;;;;;;;;4997162;28;20023;-27
2022/11/07 13:20:20;;;;;;;144.60;36.80;;;;;;;;;;4997423;28;20053;-27
2022/11/07 13:22:47;;;;;;;176.68;43.97;;;;;;;;;;4996782;28;20106;-27
2022/11/07 13:25:14;;;;;;;199.40;44.55;;;;;;;;;;4996772;28;20038;-27
2022/11/07 13:27:41;;;;;;;226.77;53.08;;;;;;;;;;4996636;28;20508;-27
2022/11/07 13:30:13;;;;;;;200.48;50.58;;;;;;;;;;4997035;28;20030;-27
2022/11/07 13:32:40;;;;;;;239.48;54.30;;;;;;;;;;4996558;28;20038;-28
2022/11/07 13:35:07;;;;;;;292.75;62.17;;;;;;;;;;4997528;28;20039;-27
2022/11/07 13:37:36;;;;;;;214.35;50.10;;;;;;;;;;4997130;28;20030;-28
2022/11/07 13:40:24;;;;;;;193.23;49.28;;;;;;;;;;4996802;28;20030;-27
2022/11/07 13:42:55;;;;;;;250.05;59.03;;;;;;;;;;4996435;28;20058;-27
2022/11/07 13:45:51;;;;;;;235.48;55.33;;;;;;;;;;4996625;28;20066;-28
2022/11/07 13:48:23;;;;;;;210.20;51.55;;;;;;;;;;4980337;28;20057;-27
2022/11/07 13:51:05;;;;;;;155.52;35.03;;;;;;;;;;4996491;28;20026;-27
2022/11/07 13:53:38;;;;;;;113.30;27.55;;;;;;;;;;4996224;28;20121;-27
2022/11/07 13:56:13;;;;;;;114.80;25.70;;;;;;;;;;4996523;28;20022;-27
2022/11/07 13:58:41;;;;;;;145.52;37.42;;;;;;;;;;4996239;28;20057;-27
2022/11/07 14:01:11;;;;;;;144.82;35.97;;;;;;;;;;4996149;28;20499;-27
2022/11/07 14:03:37;;;;;;;123.47;33.47;;;;;;;;;;4995870;28;20381;-27
2022/11/07 14:06:04;;;;;;;128.60;33.08;;;;;;;;;;4996306;28;20030;-28
2022/11/07 14:08:31;;;;;;;134.18;30.67;;;;;;;;;;4995249;28;20030;-27
2022/11/07 14:10:58;;;;;;;126.03;34.25;;;;;;;;;;4996230;28;20113;-28
2022/11/07 14:13:27;;;;;;;84.50;28.50;;;;;;;;;;4995706;28;20030;-27
2022/11/07 14:15:54;;;;;;;71.22;21.80;;;;;;;;;;4996350;28;20102;-28
2022/11/07 14:18:22;;;;;;;60.58;16.88;;;;;;;;;;4995866;28;20022;-28
2022/11/07 14:20:51;;;;;;;47.90;17.98;;;;;;;;;;4995766;28;20022;-28
2022/11/07 14:23:20;;;;;;;55.70;18.92;;;;;;;;;;4996016;28;20408;-28
2022/11/07 14:25:54;;;;;;;55.75;14.32;;;;;;;;;;4995745;28;20098;-27
2022/11/07 14:28:20;;;;;;;49.72;13.23;;;;;;;;;;4995668;28;20042;-27
2022/11/07 14:30:48;;;;;;;43.83;12.63;;;;;;;;;;4995622;28;20030;-27
2022/11/07 14:33:19;;;;;;;46.53;14.25;;;;;;;;;;4995648;28;20034;-28
2022/11/07 14:35:46;;;;;;;46.57;15.40;;;;;;;;;;4996189;28;20080;-28
2022/11/07 14:38:17;;;;;;;45.10;14.07;;;;;;;;;;4995858;28;20045;-27
2022/11/07 14:40:43;;;;;;;41.95;13.75;;;;;;;;;;4995595;28;20034;-27
2022/11/07 14:43:17;;;;;;;64.03;20.70;;;;;;;;;;4995381;28;20026;-27
2022/11/07 14:45:44;;;;;;;52.83;16.40;;;;;;;;;;4995726;28;20331;-27
2022/11/07 14:48:16;;;;;;;75.75;22.77;;;;;;;;;;4995685;28;20054;-27
2022/11/07 14:50:42;;;;;;;89.13;21.58;;;;;;;;;;4995639;28;20354;-28
2022/11/07 14:53:13;;;;;;;81.65;21.17;;;;;;;;;;4995392;28;20022;-27
2022/11/07 14:55:48;;;;;;;76.43;23.67;;;;;;;;;;4995195;28;20113;-28